createdAt,value
2022-08-26T00:01:36.555Z,101027.72
2022-08-26T00:06:38.413Z,101023.38
2022-08-26T00:11:45.355Z,101030.34
2022-08-26T00:16:48.429Z,101030.66
2022-08-26T00:21:50.583Z,101031.63
2022-08-26T00:26:52.908Z,101029.94
2022-08-26T00:31:54.645Z,101030.31
2022-08-26T00:36:56.083Z,101028.56
2022-08-26T00:41:57.657Z,101028.25
2022-08-26T00:47:01.363Z,101027.69
2022-08-26T00:52:04.858Z,101027.66
2022-08-26T00:57:16.286Z,101022.53
2022-08-26T01:02:20.176Z,101025.72
2022-08-26T01:07:27.528Z,101018.56
2022-08-26T01:12:33.644Z,101020.13
2022-08-26T01:17:35.203Z,101021.13
2022-08-26T01:23:01.580Z,101020.94
2022-08-26T01:28:06.316Z,101025.66
2022-08-26T01:33:11.445Z,101019.81
2022-08-26T01:38:13.708Z,101014.38
2022-08-26T01:43:18.036Z,101015.75
2022-08-26T01:48:22.170Z,101021.53
2022-08-26T01:53:23.685Z,101027.34
2022-08-26T01:58:28.282Z,101019.38
2022-08-26T02:03:29.894Z,101019.81
2022-08-26T02:08:38.964Z,101005.31
2022-08-26T02:13:43.311Z,101010.16
2022-08-26T02:18:45.219Z,100999.75
2022-08-26T02:23:48.664Z,101006.78
2022-08-26T02:29:10.222Z,101010.25
2022-08-26T02:34:12.972Z,101014.81
2022-08-26T02:39:21.961Z,101009.66
2022-08-26T02:44:23.932Z,101009.75
2022-08-26T02:49:27.107Z,101007.63
2022-08-26T02:54:28.844Z,101004.31
2022-08-26T02:59:31.386Z,101002.22
2022-08-26T03:04:33.375Z,100993.16
2022-08-26T03:09:35.096Z,100998.66
2022-08-26T03:14:36.687Z,101000.16
2022-08-26T03:19:38.340Z,100992.41
2022-08-26T03:24:39.919Z,100987.38
2022-08-26T03:30:00.255Z,100998.59
2022-08-26T03:35:02.700Z,100996.75
2022-08-26T03:40:04.786Z,100996.81
2022-08-26T03:45:07.663Z,100994.09
2022-08-26T03:50:10.254Z,100989.78
2022-08-26T03:55:11.842Z,100990.03
2022-08-26T04:00:15.386Z,101001.50
2022-08-26T04:05:20.477Z,100994.69
2022-08-26T04:10:29.004Z,100982.72
2022-08-26T04:15:31.048Z,100983.19
2022-08-26T04:20:32.575Z,100979.59
2022-08-26T04:25:34.386Z,100971.16
2022-08-26T04:30:37.784Z,100970.47
2022-08-26T04:35:39.679Z,100975.03
2022-08-26T04:40:46.815Z,100976.50
2022-08-26T04:45:48.986Z,100979.97
2022-08-26T04:50:51.402Z,100982.88
2022-08-26T04:55:55.191Z,100973.56
2022-08-26T05:00:56.951Z,100974.13
2022-08-26T05:05:58.563Z,100972.34
2022-08-26T05:11:03.730Z,100983.69
2022-08-26T05:16:09.744Z,100982.13
2022-08-26T05:21:21.299Z,100981.81
2022-08-26T05:26:24.021Z,100989.94
2022-08-26T05:31:29.461Z,100967.78
2022-08-26T05:36:33.380Z,100980.72
2022-08-26T05:41:38.555Z,100977.69
2022-08-26T05:46:41.060Z,100983.53
2022-08-26T05:51:45.246Z,100990.53
2022-08-26T05:56:46.844Z,100990.53
2022-08-26T06:01:48.480Z,100998.94
2022-08-26T06:06:49.906Z,101000.75
2022-08-26T06:11:51.488Z,101004.25
2022-08-26T06:16:53.016Z,100999.25
2022-08-26T06:21:54.847Z,101000.97
2022-08-26T06:26:58.187Z,101011.22
2022-08-26T06:31:59.910Z,101010.56
2022-08-26T06:37:06.411Z,101006.50
2022-08-26T06:42:08.295Z,101023.38
2022-08-26T06:47:09.691Z,101035.56
2022-08-26T06:52:11.259Z,101023.25
2022-08-26T06:57:12.670Z,101029.28
2022-08-26T07:02:15.879Z,101031.63
2022-08-26T07:07:22.088Z,101026.66
2022-08-26T07:12:23.766Z,101033.38
2022-08-26T07:17:26.647Z,101038.09
2022-08-26T07:22:28.983Z,101040.88
2022-08-26T07:27:32.083Z,101045.25
2022-08-26T07:32:33.535Z,101048.63
2022-08-26T07:37:39.157Z,101060.97
2022-08-26T07:42:40.987Z,101055.03
2022-08-26T07:47:42.378Z,101067.06
2022-08-26T07:52:43.903Z,101068.50
2022-08-26T07:57:47.550Z,101058.97
2022-08-26T08:02:51.223Z,101061.84
2022-08-26T08:07:53.523Z,101052.84
2022-08-26T08:13:03.436Z,101064.00
2022-08-26T08:18:06.605Z,101076.00
2022-08-26T08:23:16.937Z,101076.28
2022-08-26T08:28:18.900Z,101077.88
2022-08-26T08:33:22.890Z,101072.69
2022-08-26T08:38:24.322Z,101066.22
2022-08-26T08:43:38.178Z,101069.50
2022-08-26T08:48:43.406Z,101065.13
2022-08-26T08:53:45.875Z,101060.69
2022-08-26T08:58:50.159Z,101053.75
2022-08-26T09:03:56.098Z,101051.53
2022-08-26T09:08:58.526Z,101046.84
2022-08-26T09:14:00.348Z,101057.03
2022-08-26T09:19:17.025Z,101056.69
2022-08-26T09:24:22.211Z,101054.41
2022-08-26T09:29:26.239Z,101058.25
2022-08-26T09:34:27.898Z,101055.59
2022-08-26T09:39:37.700Z,101066.31
2022-08-26T09:45:03.946Z,101069.00
2022-08-26T09:50:12.531Z,101052.75
2022-08-26T09:55:15.612Z,101065.31
2022-08-26T10:00:54.746Z,101059.81
2022-08-26T10:06:06.897Z,101068.97
2022-08-26T10:11:19.142Z,101072.69
2022-08-26T10:16:34.700Z,101068.16
2022-08-26T10:21:55.062Z,101066.44
2022-08-26T10:27:03.205Z,101078.16
2022-08-26T10:32:10.330Z,101084.41
2022-08-26T10:37:18.308Z,101087.00
2022-08-26T10:42:24.748Z,101086.69
2022-08-26T10:47:47.730Z,101096.91
2022-08-26T10:52:56.355Z,101101.91
2022-08-26T10:58:05.062Z,101121.22
2022-08-26T11:03:27.984Z,101119.00
2022-08-26T11:08:29.700Z,101125.22
2022-08-26T11:13:59.897Z,101125.53
2022-08-26T11:19:01.620Z,101135.28
2022-08-26T11:24:03.677Z,101118.81
2022-08-26T11:29:14.519Z,101133.19
2022-08-26T11:34:16.075Z,101117.94
2022-08-26T11:39:36.833Z,101118.47
2022-08-26T11:44:40.676Z,101121.84
2022-08-26T11:49:42.266Z,101115.28
2022-08-26T11:54:59.229Z,101126.22
2022-08-26T12:00:01.347Z,101119.50
2022-08-26T12:05:03.007Z,101116.69
2022-08-26T12:10:06.177Z,101110.38
2022-08-26T12:15:17.782Z,101098.22
2022-08-26T12:20:48.553Z,101096.38
2022-08-26T12:25:51.897Z,101094.72
2022-08-26T12:31:05.657Z,101083.38
2022-08-26T12:36:07.323Z,101068.63
2022-08-26T12:41:08.941Z,101076.88
2022-08-26T12:46:16.446Z,101079.13
2022-08-26T12:51:25.811Z,101077.66
2022-08-26T12:56:39.073Z,101087.63
2022-08-26T13:01:44.176Z,101081.47
2022-08-26T13:06:45.787Z,101081.75
2022-08-26T13:11:47.533Z,101086.09
2022-08-26T13:16:49.337Z,101085.38
2022-08-26T13:21:55.396Z,101077.22
2022-08-26T13:26:56.976Z,101069.03
2022-08-26T13:31:58.950Z,101068.19
2022-08-26T13:37:00.553Z,101066.53
2022-08-26T13:42:02.083Z,101070.34
2022-08-26T13:47:03.692Z,101053.75
2022-08-26T13:52:05.210Z,101040.53
2022-08-26T13:57:06.809Z,101034.53
2022-08-26T14:02:08.327Z,101035.81
2022-08-26T14:07:11.523Z,101040.13
2022-08-26T14:12:13.061Z,101050.75
2022-08-26T14:17:21.260Z,101049.81
2022-08-26T14:22:22.813Z,101042.25
2022-08-26T14:27:25.275Z,101036.94
2022-08-26T14:32:27.413Z,101040.13
2022-08-26T14:37:28.935Z,101035.63
2022-08-26T14:42:31.413Z,101039.19
2022-08-26T14:47:33.260Z,101049.50
2022-08-26T14:52:54.764Z,101052.16
2022-08-26T14:57:56.380Z,101043.47
2022-08-26T15:02:58.432Z,101054.34
2022-08-26T15:08:00.450Z,101057.72
2022-08-26T15:13:02.552Z,101051.16
2022-08-26T15:18:04.159Z,101067.78
2022-08-26T15:23:07.379Z,101074.06
2022-08-26T15:28:09.241Z,101090.97
2022-08-26T15:33:15.285Z,101072.94
2022-08-26T15:38:17.984Z,101077.38
2022-08-26T15:43:28.659Z,101094.50
2022-08-26T15:48:30.717Z,101094.06
2022-08-26T15:53:33.362Z,101108.13
2022-08-26T15:58:34.939Z,101110.28
2022-08-26T16:03:37.796Z,101099.66
2022-08-26T16:08:39.306Z,101102.44
2022-08-26T16:13:40.846Z,101114.66
2022-08-26T16:18:42.548Z,101116.53
2022-08-26T16:23:44.965Z,101114.91
2022-08-26T16:28:47.375Z,101118.31
2022-08-26T16:33:48.912Z,101120.06
2022-08-26T16:38:56.197Z,101125.66
2022-08-26T16:43:57.815Z,101119.66
2022-08-26T16:48:59.359Z,101112.06
2022-08-26T16:54:01.603Z,101105.25
2022-08-26T16:59:04.892Z,101108.72
2022-08-26T17:04:06.468Z,101107.44
2022-08-26T17:09:08.066Z,101122.88
2022-08-26T17:14:09.989Z,101127.31
2022-08-26T17:19:11.595Z,101139.31
2022-08-26T17:24:13.142Z,101141.03
2022-08-26T17:29:14.700Z,101149.19
2022-08-26T17:34:16.789Z,101150.38
2022-08-26T17:39:18.312Z,101166.59
2022-08-26T17:44:19.848Z,101170.78
2022-08-26T17:49:21.383Z,101179.13
2022-08-26T17:54:22.920Z,101164.81
2022-08-26T17:59:24.667Z,101160.00
2022-08-26T18:04:32.184Z,101150.28
2022-08-26T18:09:33.759Z,101156.63
2022-08-26T18:14:35.331Z,101151.31
2022-08-26T18:19:36.907Z,101147.38
2022-08-26T18:24:39.924Z,101143.44
2022-08-26T18:29:58.049Z,101163.25
2022-08-26T18:34:59.737Z,101153.03
2022-08-26T18:40:01.424Z,101168.41
2022-08-26T18:45:04.545Z,101166.59
2022-08-26T18:50:06.626Z,101147.72
2022-08-26T18:55:08.438Z,101157.75
2022-08-26T19:00:11.337Z,101167.34
2022-08-26T19:05:12.873Z,101164.09
2022-08-26T19:10:14.430Z,101177.19
2022-08-26T19:15:16.034Z,101184.53
2022-08-26T19:20:17.596Z,101197.47
2022-08-26T19:25:19.186Z,101197.13
2022-08-26T19:30:20.875Z,101194.13
2022-08-26T19:35:22.410Z,101193.66
2022-08-26T19:40:24.096Z,101200.13
2022-08-26T19:45:25.689Z,101200.59
2022-08-26T19:50:28.526Z,101201.84
2022-08-26T19:55:30.207Z,101197.13
2022-08-26T20:00:31.981Z,101186.69
2022-08-26T20:05:33.498Z,101188.50
2022-08-26T20:10:35.847Z,101190.00
2022-08-26T20:15:37.348Z,101190.34
2022-08-26T20:20:57.312Z,101177.28
2022-08-26T20:25:58.819Z,101179.91
2022-08-26T20:31:00.597Z,101189.03
2022-08-26T20:36:02.778Z,101184.59
2022-08-26T20:41:08.886Z,101185.53
2022-08-26T20:46:18.003Z,101191.44
2022-08-26T20:51:21.154Z,101172.78
2022-08-26T20:56:24.874Z,101163.53
2022-08-26T21:01:30.522Z,101177.72
2022-08-26T21:06:35.212Z,101187.47
2022-08-26T21:11:37.213Z,101175.06
2022-08-26T21:16:38.894Z,101170.25
2022-08-26T21:21:40.913Z,101193.22
2022-08-26T21:26:42.361Z,101192.38
2022-08-26T21:31:46.367Z,101183.03
2022-08-26T21:36:48.351Z,101197.44
2022-08-26T21:41:49.887Z,101194.16
2022-08-26T21:46:51.394Z,101188.66
2022-08-26T21:51:52.932Z,101192.38
2022-08-26T21:56:54.455Z,101182.88
2022-08-26T22:01:56.917Z,101192.50
2022-08-26T22:06:58.897Z,101195.91
2022-08-26T22:12:00.561Z,101201.66
2022-08-26T22:17:02.648Z,101203.63
2022-08-26T22:22:04.255Z,101201.53
2022-08-26T22:27:05.762Z,101202.00
2022-08-26T22:32:07.391Z,101207.97
2022-08-26T22:37:08.931Z,101208.91
2022-08-26T22:42:10.454Z,101202.69
2022-08-26T22:47:11.977Z,101200.50
2022-08-26T22:52:13.501Z,101196.41
2022-08-26T22:57:15.010Z,101197.94
2022-08-26T23:02:16.563Z,101196.31
2022-08-26T23:07:18.811Z,101209.56
2022-08-26T23:12:20.334Z,101206.09
2022-08-26T23:17:21.853Z,101207.69
2022-08-26T23:22:23.533Z,101209.28
2022-08-26T23:27:25.046Z,101216.81
2022-08-26T23:32:26.573Z,101214.50
2022-08-26T23:37:40.787Z,101210.25
2022-08-26T23:42:42.542Z,101215.31
2022-08-26T23:47:44.756Z,101206.91
2022-08-26T23:53:04.656Z,101200.19
2022-08-26T23:58:06.295Z,101204.47
